createdAt,value
2018-06-05T00:00:47.121Z,42.30
2018-06-05T00:03:15.297Z,42.20
2018-06-05T00:05:43.507Z,42.60
2018-06-05T00:08:11.799Z,43.90
2018-06-05T00:10:40.007Z,42.40
2018-06-05T00:13:08.202Z,42.70
2018-06-05T00:15:36.403Z,43.10
2018-06-05T00:18:04.629Z,43.30
2018-06-05T00:20:32.864Z,44.40
2018-06-05T00:23:01.144Z,43.10
2018-06-05T00:25:29.469Z,43.60
2018-06-05T00:27:57.670Z,44.10
2018-06-05T00:30:25.880Z,43.50
2018-06-05T00:32:54.089Z,43.80
2018-06-05T00:35:22.264Z,44.50
2018-06-05T00:37:50.460Z,44.00
2018-06-05T00:40:18.674Z,44.10
2018-06-05T00:42:46.892Z,44.50
2018-06-05T00:45:15.108Z,44.50
2018-06-05T00:47:43.265Z,44.60
2018-06-05T00:50:11.469Z,44.40
2018-06-05T00:52:39.631Z,45.00
2018-06-05T00:55:07.789Z,45.60
2018-06-05T01:00:04.413Z,45.60
2018-06-05T01:02:32.628Z,45.00
2018-06-05T01:05:00.789Z,45.30
2018-06-05T01:07:28.945Z,45.70
2018-06-05T01:09:57.214Z,45.00
2018-06-05T01:12:25.379Z,45.40
2018-06-05T01:14:53.537Z,45.10
2018-06-05T01:17:21.701Z,45.60
2018-06-05T01:19:49.902Z,45.70
2018-06-05T01:22:18.045Z,46.10
2018-06-05T01:24:46.249Z,45.90
2018-06-05T01:27:14.382Z,45.60
2018-06-05T01:29:42.545Z,45.40
2018-06-05T01:32:10.709Z,45.20
2018-06-05T01:34:38.882Z,45.60
2018-06-05T01:37:07.029Z,45.80
2018-06-05T01:39:35.313Z,45.90
2018-06-05T01:42:03.482Z,45.90
2018-06-05T01:44:31.645Z,46.30
2018-06-05T01:46:59.797Z,46.70
2018-06-05T01:49:43.584Z,47.10
2018-06-05T01:52:11.735Z,47.60
2018-06-05T01:54:39.893Z,47.70
2018-06-05T01:57:08.034Z,48.30
2018-06-05T01:59:36.275Z,48.90
2018-06-05T02:02:04.443Z,49.20
2018-06-05T02:04:32.623Z,49.90
2018-06-05T02:07:00.781Z,50.60
2018-06-05T02:09:28.937Z,51.50
2018-06-05T02:11:57.106Z,52.70
2018-06-05T02:14:25.252Z,53.10
2018-06-05T02:16:53.418Z,53.50
2018-06-05T02:19:21.573Z,53.30
2018-06-05T02:21:49.737Z,53.20
2018-06-05T02:24:17.914Z,53.10
2018-06-05T02:26:46.079Z,53.10
2018-06-05T02:29:14.222Z,53.80
2018-06-05T02:31:42.425Z,53.90
2018-06-05T02:34:10.613Z,54.40
2018-06-05T02:36:38.729Z,54.70
2018-06-05T02:39:07.459Z,55.00
2018-06-05T02:41:35.669Z,55.50
2018-06-05T02:44:03.845Z,55.90
2018-06-05T02:46:32.002Z,56.50
2018-06-05T02:49:00.169Z,57.20
2018-06-05T02:51:28.466Z,57.20
2018-06-05T02:53:56.638Z,57.00
2018-06-05T02:56:24.816Z,56.70
2018-06-05T02:58:52.995Z,56.60
2018-06-05T03:01:21.250Z,56.80
2018-06-05T03:03:49.449Z,57.00
2018-06-05T03:06:17.605Z,57.20
2018-06-05T03:08:45.789Z,56.70
2018-06-05T03:11:15.500Z,56.50
2018-06-05T03:13:43.689Z,56.20
2018-06-05T03:16:11.849Z,55.90
2018-06-05T03:18:40.054Z,55.90
2018-06-05T03:21:08.231Z,55.60
2018-06-05T03:23:36.397Z,55.60
2018-06-05T03:26:04.545Z,56.60
2018-06-05T03:28:32.697Z,55.80
2018-06-05T03:31:00.873Z,55.80
2018-06-05T03:33:29.041Z,56.20
2018-06-05T03:35:57.197Z,56.30
2018-06-05T03:38:25.361Z,56.30
2018-06-05T03:40:53.536Z,56.00
2018-06-05T03:43:21.666Z,55.80
2018-06-05T03:45:49.841Z,55.90
2018-06-05T03:48:18.014Z,56.00
2018-06-05T03:50:46.184Z,55.80
2018-06-05T03:53:14.337Z,55.50
2018-06-05T03:55:42.608Z,55.40
2018-06-05T03:58:10.743Z,55.10
2018-06-05T04:00:38.990Z,54.70
2018-06-05T04:03:07.141Z,55.30
2018-06-05T04:05:35.337Z,54.80
2018-06-05T04:08:03.619Z,54.70
2018-06-05T04:10:31.757Z,54.40
2018-06-05T04:12:59.930Z,54.20
2018-06-05T04:15:28.207Z,54.00
2018-06-05T04:17:56.393Z,54.40
2018-06-05T04:20:25.375Z,54.30
2018-06-05T04:22:53.558Z,53.90
2018-06-05T04:25:21.702Z,53.20
2018-06-05T04:27:49.853Z,53.30
2018-06-05T04:30:18.005Z,53.50
2018-06-05T04:32:46.169Z,53.40
2018-06-05T04:35:21.089Z,52.90
2018-06-05T04:37:49.270Z,53.20
2018-06-05T04:40:17.432Z,53.10
2018-06-05T04:42:45.581Z,52.70
2018-06-05T04:45:13.738Z,52.90
2018-06-05T04:47:41.900Z,52.90
2018-06-05T04:50:10.062Z,52.40
2018-06-05T04:52:38.257Z,52.10
2018-06-05T04:55:06.405Z,52.10
2018-06-05T04:57:34.599Z,51.70
2018-06-05T05:00:02.777Z,52.10
2018-06-05T05:02:30.925Z,51.80
2018-06-05T05:04:59.103Z,51.50
2018-06-05T05:07:33.967Z,50.70
2018-06-05T05:10:02.127Z,50.50
2018-06-05T05:12:30.357Z,50.30
2018-06-05T05:14:58.614Z,49.50
2018-06-05T05:17:26.784Z,49.00
2018-06-05T05:19:54.940Z,49.30
2018-06-05T05:22:23.089Z,47.90
2018-06-05T05:24:51.233Z,46.60
2018-06-05T05:27:19.398Z,44.50
2018-06-05T05:29:47.698Z,44.30
2018-06-05T05:32:15.853Z,43.60
2018-06-05T05:34:43.994Z,42.80
2018-06-05T05:39:40.177Z,41.20
2018-06-05T05:42:08.349Z,40.70
2018-06-05T05:44:36.528Z,40.50
2018-06-05T05:47:04.785Z,39.50
2018-06-05T05:49:32.874Z,39.20
2018-06-05T05:52:01.045Z,38.40
2018-06-05T05:54:29.222Z,37.40
2018-06-05T05:56:57.401Z,36.80
2018-06-05T05:59:25.639Z,36.50
2018-06-05T06:01:53.815Z,36.30
2018-06-05T06:04:21.966Z,35.60
2018-06-05T06:06:50.177Z,35.50
2018-06-05T06:09:18.297Z,35.20
2018-06-05T06:11:46.561Z,34.60
2018-06-05T06:14:14.745Z,34.10
2018-06-05T06:16:42.902Z,34.00
2018-06-05T06:19:11.059Z,32.70
2018-06-05T06:21:39.238Z,32.30
2018-06-05T06:24:07.436Z,32.10
2018-06-05T06:26:35.734Z,30.90
2018-06-05T06:29:03.892Z,31.10
2018-06-05T06:31:32.067Z,31.10
2018-06-05T06:34:00.246Z,30.30
2018-06-05T06:36:28.419Z,30.20
2018-06-05T06:38:56.601Z,30.00
2018-06-05T06:41:24.769Z,30.20
2018-06-05T06:43:52.961Z,29.90
2018-06-05T06:46:21.093Z,29.80
2018-06-05T06:48:49.336Z,29.50
2018-06-05T06:51:17.443Z,29.90
2018-06-05T06:53:45.606Z,29.40
2018-06-05T06:56:13.753Z,29.60
2018-06-05T06:58:41.950Z,28.60
2018-06-05T07:01:10.125Z,29.40
2018-06-05T07:03:38.313Z,29.20
2018-06-05T07:06:06.483Z,29.80
2018-06-05T07:08:34.654Z,30.20
2018-06-05T07:11:02.823Z,29.20
2018-06-05T07:13:31.002Z,28.30
2018-06-05T07:15:59.176Z,28.40
2018-06-05T07:18:27.382Z,27.70
2018-06-05T07:20:55.537Z,27.40
2018-06-05T07:23:23.730Z,27.80
2018-06-05T07:25:51.925Z,27.40
2018-06-05T07:28:20.142Z,27.20
2018-06-05T07:30:48.458Z,27.30
2018-06-05T07:33:16.626Z,27.50
2018-06-05T07:35:44.832Z,27.50
2018-06-05T07:38:13.010Z,27.10
2018-06-05T07:40:41.253Z,26.90
2018-06-05T07:43:09.617Z,26.80
2018-06-05T07:45:37.833Z,26.60
2018-06-05T07:48:06.086Z,26.20
2018-06-05T07:50:34.336Z,26.50
2018-06-05T07:53:02.534Z,25.00
2018-06-05T07:55:30.770Z,25.40
2018-06-05T07:57:58.963Z,25.20
2018-06-05T08:00:27.164Z,25.00
2018-06-05T08:02:55.377Z,24.80
2018-06-05T08:05:23.610Z,25.00
2018-06-05T08:10:26.426Z,24.10
2018-06-05T08:12:54.612Z,24.10
2018-06-05T08:15:22.839Z,23.90
2018-06-05T08:17:51.034Z,24.70
2018-06-05T08:20:19.238Z,24.70
2018-06-05T08:22:53.584Z,24.50
2018-06-05T08:25:21.804Z,25.00
2018-06-05T08:27:50.041Z,24.20
2018-06-05T08:30:18.276Z,23.60
2018-06-05T08:32:46.521Z,24.90
2018-06-05T08:35:14.737Z,25.40
2018-06-05T08:37:42.998Z,25.50
2018-06-05T08:40:11.195Z,25.00
2018-06-05T08:42:39.402Z,24.10
2018-06-05T08:45:07.614Z,24.00
2018-06-05T08:47:35.816Z,23.70
2018-06-05T08:50:04.011Z,23.90
2018-06-05T08:52:32.173Z,24.70
2018-06-05T08:55:00.357Z,24.60
2018-06-05T08:57:28.534Z,25.00
2018-06-05T08:59:56.792Z,24.80
2018-06-05T09:02:24.946Z,25.30
2018-06-05T09:04:53.105Z,25.30
2018-06-05T09:07:21.367Z,25.00
2018-06-05T09:09:49.525Z,24.50
2018-06-05T09:12:17.696Z,24.20
2018-06-05T09:14:45.841Z,24.30
2018-06-05T09:17:14.010Z,25.70
2018-06-05T09:19:42.189Z,25.20
2018-06-05T09:22:10.341Z,25.00
2018-06-05T09:24:38.532Z,24.40
2018-06-05T09:27:06.713Z,24.10
2018-06-05T09:29:34.869Z,23.30
2018-06-05T09:32:03.033Z,23.20
2018-06-05T09:34:31.313Z,23.10
2018-06-05T09:36:59.441Z,22.90
2018-06-05T09:39:27.601Z,23.40
2018-06-05T09:41:55.826Z,24.20
2018-06-05T09:44:23.979Z,24.20
2018-06-05T09:46:52.279Z,23.60
2018-06-05T09:49:20.553Z,24.10
2018-06-05T09:51:48.820Z,24.60
2018-06-05T09:54:16.993Z,23.50
2018-06-05T09:56:45.194Z,22.30
2018-06-05T09:59:13.410Z,19.40
2018-06-05T10:01:41.617Z,21.20
2018-06-05T10:04:09.795Z,21.50
2018-06-05T10:06:38.080Z,22.50
2018-06-05T10:09:07.360Z,22.60
2018-06-05T10:11:35.574Z,22.40
2018-06-05T10:14:03.860Z,22.20
2018-06-05T10:16:32.132Z,21.60
2018-06-05T10:19:00.814Z,22.10
2018-06-05T10:21:29.137Z,21.30
2018-06-05T10:23:57.486Z,21.80
2018-06-05T10:26:25.745Z,22.90
2018-06-05T10:28:54.021Z,23.70
2018-06-05T10:31:22.232Z,23.70
2018-06-05T10:33:50.489Z,23.50
2018-06-05T10:36:18.689Z,23.50
2018-06-05T10:38:46.893Z,22.20
2018-06-05T10:41:15.104Z,21.70
2018-06-05T10:43:43.373Z,24.40
2018-06-05T10:46:11.620Z,24.10
2018-06-05T10:48:39.843Z,23.20
2018-06-05T10:51:08.026Z,24.50
2018-06-05T10:53:36.287Z,24.60
2018-06-05T10:56:07.537Z,24.80
2018-06-05T10:58:37.326Z,23.80
2018-06-05T11:01:05.585Z,24.30
2018-06-05T11:03:33.810Z,24.10
2018-06-05T11:06:02.041Z,23.70
2018-06-05T11:08:30.267Z,23.10
2018-06-05T11:10:58.457Z,23.50
2018-06-05T11:13:26.658Z,23.80
2018-06-05T11:15:54.861Z,24.60
2018-06-05T11:18:23.063Z,24.40
2018-06-05T11:23:19.249Z,24.10
2018-06-05T11:25:47.443Z,24.60
2018-06-05T11:28:15.664Z,24.00
2018-06-05T11:30:43.873Z,24.10
2018-06-05T11:33:12.052Z,24.90
2018-06-05T11:35:40.238Z,24.10
2018-06-05T11:38:08.445Z,24.40
2018-06-05T11:40:36.633Z,24.80
2018-06-05T11:43:04.874Z,24.40
2018-06-05T11:45:33.139Z,24.30
2018-06-05T11:48:01.287Z,24.30
2018-06-05T11:50:29.430Z,23.60
2018-06-05T11:52:57.655Z,24.00
2018-06-05T11:55:25.829Z,23.80
2018-06-05T11:57:54.014Z,24.20
2018-06-05T12:00:22.199Z,24.70
2018-06-05T12:02:50.453Z,25.70
2018-06-05T12:05:18.601Z,26.20
2018-06-05T12:07:46.781Z,26.60
2018-06-05T12:10:14.986Z,26.20
2018-06-05T12:12:43.182Z,26.00
2018-06-05T12:15:11.402Z,26.00
2018-06-05T12:17:39.669Z,25.70
2018-06-05T12:20:07.797Z,26.50
2018-06-05T12:22:35.961Z,25.40
2018-06-05T12:25:04.161Z,25.70
2018-06-05T12:27:32.385Z,25.00
2018-06-05T12:30:00.552Z,24.90
2018-06-05T12:32:28.758Z,24.70
2018-06-05T12:34:56.938Z,24.20
2018-06-05T12:37:25.101Z,24.50
2018-06-05T12:39:53.277Z,24.50
2018-06-05T12:42:21.424Z,24.10
2018-06-05T12:44:49.622Z,24.00
2018-06-05T12:47:17.849Z,23.20
2018-06-05T12:49:46.033Z,23.10
2018-06-05T12:52:14.250Z,22.70
2018-06-05T12:54:42.458Z,23.20
2018-06-05T12:57:10.682Z,23.00
2018-06-05T12:59:38.905Z,22.90
2018-06-05T13:02:07.162Z,23.00
2018-06-05T13:04:35.358Z,22.70
2018-06-05T13:07:03.574Z,22.10
2018-06-05T13:09:31.802Z,21.90
2018-06-05T13:12:00.037Z,22.10
2018-06-05T13:14:28.238Z,22.20
2018-06-05T13:16:56.453Z,22.60
2018-06-05T13:19:24.708Z,22.40
2018-06-05T13:21:52.933Z,21.50
2018-06-05T13:24:21.153Z,21.70
2018-06-05T13:26:49.380Z,22.00
2018-06-05T13:29:17.660Z,22.80
2018-06-05T13:31:45.837Z,21.80
2018-06-05T13:34:14.166Z,22.00
2018-06-05T13:36:42.438Z,21.40
2018-06-05T13:39:10.590Z,21.20
2018-06-05T13:41:38.851Z,20.60
2018-06-05T13:44:07.042Z,20.80
2018-06-05T13:46:35.225Z,21.00
2018-06-05T13:49:03.409Z,21.00
2018-06-05T13:51:31.593Z,23.90
2018-06-05T13:53:59.770Z,26.10
2018-06-05T13:56:27.943Z,25.80
2018-06-05T13:58:56.220Z,26.00
2018-06-05T14:01:24.433Z,26.40
2018-06-05T14:03:52.641Z,26.00
2018-06-05T14:06:20.816Z,27.00
2018-06-05T14:08:48.965Z,27.40
2018-06-05T14:11:17.264Z,27.70
2018-06-05T14:13:45.427Z,28.10
2018-06-05T14:16:13.626Z,27.50
2018-06-05T14:18:41.796Z,26.70
2018-06-05T14:21:09.959Z,26.70
2018-06-05T14:23:38.207Z,26.80
2018-06-05T14:26:06.466Z,26.90
2018-06-05T14:28:34.648Z,26.50
2018-06-05T14:31:02.869Z,26.70
2018-06-05T14:33:31.053Z,27.30
2018-06-05T14:35:59.266Z,26.70
2018-06-05T14:38:27.609Z,26.30
2018-06-05T14:40:55.811Z,26.20
2018-06-05T14:43:24.025Z,26.40
2018-06-05T14:45:52.254Z,26.30
2018-06-05T14:48:20.452Z,26.00
2018-06-05T14:50:48.653Z,25.50
2018-06-05T14:53:16.885Z,25.60
2018-06-05T14:55:45.166Z,24.70
2018-06-05T14:58:13.484Z,24.90
2018-06-05T15:00:41.685Z,25.30
2018-06-05T15:03:09.923Z,24.80
2018-06-05T15:05:38.129Z,24.50
2018-06-05T15:08:06.733Z,24.20
2018-06-05T15:10:34.949Z,24.50
2018-06-05T15:13:03.221Z,23.40
2018-06-05T15:15:31.385Z,23.30
2018-06-05T15:17:59.617Z,23.40
2018-06-05T15:20:27.905Z,24.00
2018-06-05T15:22:56.190Z,24.50
2018-06-05T15:25:24.394Z,24.80
2018-06-05T15:27:52.654Z,24.50
2018-06-05T15:30:21.071Z,24.50
2018-06-05T15:32:49.313Z,24.90
2018-06-05T15:35:17.525Z,25.30
2018-06-05T15:37:45.761Z,25.50
2018-06-05T15:40:14.035Z,24.90
2018-06-05T15:42:42.266Z,24.70
2018-06-05T15:45:13.000Z,24.50
2018-06-05T15:47:41.193Z,25.50
2018-06-05T15:50:09.418Z,25.80
2018-06-05T15:52:37.601Z,25.60
2018-06-05T15:55:06.070Z,24.80
2018-06-05T15:57:34.262Z,25.60
2018-06-05T16:00:02.593Z,25.40
2018-06-05T16:02:30.894Z,24.20
2018-06-05T16:04:59.101Z,24.60
2018-06-05T16:07:27.314Z,24.90
2018-06-05T16:09:55.489Z,24.70
2018-06-05T16:12:23.670Z,24.50
2018-06-05T16:14:51.858Z,24.80
2018-06-05T16:17:20.033Z,25.20
2018-06-05T16:19:48.227Z,25.40
2018-06-05T16:22:16.419Z,25.60
2018-06-05T16:24:44.681Z,25.70
2018-06-05T16:27:12.887Z,25.70
2018-06-05T16:29:41.090Z,25.90
2018-06-05T16:32:09.288Z,25.80
2018-06-05T16:34:37.447Z,25.50
2018-06-05T16:37:05.642Z,25.70
2018-06-05T16:39:33.805Z,25.60
2018-06-05T16:42:02.016Z,25.10
2018-06-05T16:44:30.191Z,24.90
2018-06-05T16:46:58.518Z,25.50
2018-06-05T16:49:26.725Z,25.60
2018-06-05T16:51:54.996Z,25.80
2018-06-05T16:54:23.234Z,26.10
2018-06-05T16:56:51.511Z,25.90
2018-06-05T16:59:19.718Z,26.00
2018-06-05T17:01:47.974Z,26.40
2018-06-05T17:04:16.223Z,26.30
2018-06-05T17:06:44.513Z,25.00
2018-06-05T17:09:12.758Z,24.80
2018-06-05T17:11:40.996Z,25.10
2018-06-05T17:16:38.809Z,25.30
2018-06-05T17:19:07.080Z,25.10
2018-06-05T17:21:35.298Z,25.50
2018-06-05T17:24:03.518Z,25.70
2018-06-05T17:26:31.726Z,25.60
2018-06-05T17:28:59.934Z,25.40
2018-06-05T17:31:28.105Z,25.60
2018-06-05T17:33:56.338Z,25.60
2018-06-05T17:36:24.602Z,25.70
2018-06-05T17:38:52.829Z,25.60
2018-06-05T17:41:21.038Z,25.70
2018-06-05T17:43:49.289Z,25.70
2018-06-05T17:46:17.516Z,26.00
2018-06-05T17:48:45.752Z,25.70
2018-06-05T17:51:13.971Z,26.00
2018-06-05T17:53:42.562Z,25.90
2018-06-05T17:56:10.816Z,26.00
2018-06-05T17:58:39.093Z,26.20
2018-06-05T18:01:07.391Z,26.40
2018-06-05T18:03:35.606Z,27.20
2018-06-05T18:06:03.914Z,26.70
2018-06-05T18:08:32.106Z,26.70
2018-06-05T18:11:00.970Z,26.60
2018-06-05T18:13:29.169Z,26.50
2018-06-05T18:15:57.429Z,26.50
2018-06-05T18:18:25.631Z,26.80
2018-06-05T18:20:54.249Z,26.80
2018-06-05T18:23:22.564Z,26.80
2018-06-05T18:25:50.722Z,26.80
2018-06-05T18:28:18.977Z,27.00
2018-06-05T18:30:47.181Z,27.10
2018-06-05T18:33:15.404Z,27.30
2018-06-05T18:35:43.551Z,27.50
2018-06-05T18:38:11.834Z,27.50
2018-06-05T18:40:40.078Z,27.60
2018-06-05T18:43:08.301Z,27.60
2018-06-05T18:45:36.666Z,27.60
2018-06-05T18:48:04.908Z,28.20
2018-06-05T18:50:33.185Z,27.90
2018-06-05T18:53:01.852Z,28.00
2018-06-05T18:55:30.146Z,27.90
2018-06-05T18:57:58.369Z,27.80
2018-06-05T19:00:26.737Z,28.00
2018-06-05T19:02:54.926Z,27.80
2018-06-05T19:05:23.165Z,28.20
2018-06-05T19:07:51.354Z,28.20
2018-06-05T19:10:19.609Z,28.10
2018-06-05T19:12:47.790Z,28.50
2018-06-05T19:15:15.982Z,28.50
2018-06-05T19:17:44.195Z,28.50
2018-06-05T19:20:12.427Z,28.60
2018-06-05T19:22:40.618Z,28.70
2018-06-05T19:25:08.834Z,29.30
2018-06-05T19:27:37.009Z,28.90
2018-06-05T19:30:05.900Z,28.90
2018-06-05T19:32:34.129Z,29.10
2018-06-05T19:35:02.378Z,29.30
2018-06-05T19:37:30.686Z,29.60
2018-06-05T19:39:59.185Z,29.70
2018-06-05T19:42:27.455Z,29.80
2018-06-05T19:44:55.662Z,29.70
2018-06-05T19:47:23.953Z,29.80
2018-06-05T19:49:52.239Z,30.00
2018-06-05T19:52:20.458Z,30.00
2018-06-05T19:54:48.690Z,30.00
2018-06-05T19:57:17.031Z,30.40
2018-06-05T19:59:45.270Z,30.50
2018-06-05T20:02:13.534Z,30.50
2018-06-05T20:04:41.748Z,30.90
2018-06-05T20:07:09.994Z,30.70
2018-06-05T20:09:38.250Z,30.90
2018-06-05T20:12:06.462Z,31.00
2018-06-05T20:14:35.659Z,31.60
2018-06-05T20:17:03.897Z,31.40
2018-06-05T20:19:32.117Z,31.30
2018-06-05T20:22:00.382Z,31.70
2018-06-05T20:24:28.609Z,32.10
2018-06-05T20:26:56.845Z,32.20
2018-06-05T20:29:25.095Z,32.60
2018-06-05T20:31:53.314Z,33.00
2018-06-05T20:34:21.563Z,33.20
2018-06-05T20:36:49.775Z,33.50
2018-06-05T20:39:17.969Z,34.50
2018-06-05T20:41:46.214Z,34.20
2018-06-05T20:44:14.428Z,34.20
2018-06-05T20:46:42.726Z,34.50
2018-06-05T20:49:10.905Z,34.50
2018-06-05T20:51:39.105Z,34.90
2018-06-05T20:54:07.287Z,35.10
2018-06-05T20:56:35.486Z,35.30
2018-06-05T20:59:03.702Z,35.40
2018-06-05T21:01:31.937Z,35.50
2018-06-05T21:04:00.107Z,35.70
2018-06-05T21:06:28.294Z,35.90
2018-06-05T21:08:56.510Z,36.00
2018-06-05T21:11:24.690Z,36.10
2018-06-05T21:13:52.857Z,36.30
2018-06-05T21:16:21.096Z,36.40
2018-06-05T21:18:49.309Z,36.20
2018-06-05T21:21:17.560Z,37.00
2018-06-05T21:23:45.731Z,36.40
2018-06-05T21:26:13.922Z,36.90
2018-06-05T21:28:42.097Z,37.00
2018-06-05T21:31:10.296Z,37.20
2018-06-05T21:33:38.469Z,37.20
2018-06-05T21:36:06.652Z,37.40
2018-06-05T21:38:34.873Z,37.50
2018-06-05T21:41:03.095Z,37.70
2018-06-05T21:43:31.261Z,37.70
2018-06-05T21:45:59.497Z,37.90
2018-06-05T21:48:27.673Z,38.30
2018-06-05T21:50:55.896Z,38.80
2018-06-05T21:55:52.004Z,39.00
2018-06-05T21:58:20.206Z,38.80
2018-06-05T22:00:48.368Z,38.90
2018-06-05T22:03:16.538Z,39.10
2018-06-05T22:05:44.721Z,39.30
2018-06-05T22:08:12.937Z,39.70
2018-06-05T22:10:47.914Z,39.40
2018-06-05T22:13:16.083Z,39.20
2018-06-05T22:15:44.285Z,39.30
2018-06-05T22:18:12.476Z,39.90
2018-06-05T22:20:40.630Z,40.00
2018-06-05T22:23:08.925Z,40.30
2018-06-05T22:25:37.093Z,40.50
2018-06-05T22:28:11.749Z,40.70
2018-06-05T22:30:39.940Z,41.10
2018-06-05T22:33:08.145Z,41.20
2018-06-05T22:35:36.312Z,41.50
2018-06-05T22:38:04.480Z,41.80
2018-06-05T22:40:32.689Z,42.00
2018-06-05T22:43:00.862Z,42.30
2018-06-05T22:45:29.025Z,43.00
2018-06-05T22:47:57.259Z,43.50
2018-06-05T22:50:25.638Z,43.90
2018-06-05T22:52:53.867Z,44.40
2018-06-05T22:55:22.093Z,45.30
2018-06-05T22:57:50.333Z,44.80
2018-06-05T23:00:27.013Z,45.30
2018-06-05T23:02:55.269Z,45.70
2018-06-05T23:07:51.478Z,46.20
2018-06-05T23:10:19.702Z,46.70
2018-06-05T23:12:47.941Z,47.30
2018-06-05T23:15:16.125Z,47.60
2018-06-05T23:17:44.391Z,48.10
2018-06-05T23:20:12.602Z,47.90
2018-06-05T23:22:40.854Z,47.90
2018-06-05T23:25:09.119Z,47.90
2018-06-05T23:27:37.325Z,48.50
2018-06-05T23:30:05.561Z,48.70
2018-06-05T23:32:33.763Z,49.30
2018-06-05T23:35:01.974Z,49.50
2018-06-05T23:37:30.186Z,49.50
2018-06-05T23:39:58.397Z,49.10
2018-06-05T23:42:26.654Z,49.00
2018-06-05T23:44:54.866Z,49.10
2018-06-05T23:47:23.057Z,49.30
2018-06-05T23:49:51.236Z,49.50
2018-06-05T23:52:19.424Z,49.70
2018-06-05T23:54:47.633Z,49.90
2018-06-05T23:57:15.831Z,49.90
2018-06-05T23:59:43.997Z,50.20
